sensor_id;sensor_type;location;lat;lon;timestamp;P1;durP1;ratioP1;P2;durP2;ratioP2
73980;SDS011;62348;51.412;5.436;2023-04-23T00:00:48;35.58;;;25.02;;
73980;SDS011;62348;51.412;5.436;2023-04-23T00:03:16;36.65;;;26.80;;
73980;SDS011;62348;51.412;5.436;2023-04-23T00:05:43;40.00;;;26.17;;
73980;SDS011;62348;51.412;5.436;2023-04-23T00:08:09;36.58;;;25.35;;
73980;SDS011;62348;51.412;5.436;2023-04-23T00:10:35;38.97;;;26.13;;
73980;SDS011;62348;51.412;5.436;2023-04-23T00:13:01;38.30;;;25.05;;
73980;SDS011;62348;51.412;5.436;2023-04-23T00:15:28;39.97;;;25.83;;
73980;SDS011;62348;51.412;5.436;2023-04-23T00:17:54;36.83;;;25.65;;
73980;SDS011;62348;51.412;5.436;2023-04-23T00:20:20;36.65;;;24.65;;
73980;SDS011;62348;51.412;5.436;2023-04-23T00:22:45;39.70;;;25.80;;
73980;SDS011;62348;51.412;5.436;2023-04-23T00:25:11;35.03;;;24.10;;
73980;SDS011;62348;51.412;5.436;2023-04-23T00:27:36;33.30;;;23.50;;
73980;SDS011;62348;51.412;5.436;2023-04-23T00:30:02;41.10;;;26.08;;
73980;SDS011;62348;51.412;5.436;2023-04-23T00:32:28;37.00;;;24.08;;
73980;SDS011;62348;51.412;5.436;2023-04-23T00:34:54;34.10;;;24.38;;
73980;SDS011;62348;51.412;5.436;2023-04-23T00:37:20;37.90;;;25.58;;
73980;SDS011;62348;51.412;5.436;2023-04-23T00:39:46;36.05;;;25.20;;
73980;SDS011;62348;51.412;5.436;2023-04-23T00:42:11;34.03;;;24.45;;
73980;SDS011;62348;51.412;5.436;2023-04-23T00:44:38;33.13;;;23.05;;
73980;SDS011;62348;51.412;5.436;2023-04-23T00:47:05;34.03;;;24.13;;
73980;SDS011;62348;51.412;5.436;2023-04-23T00:49:35;35.80;;;24.92;;
73980;SDS011;62348;51.412;5.436;2023-04-23T00:52:01;34.55;;;23.80;;
73980;SDS011;62348;51.412;5.436;2023-04-23T00:54:27;38.40;;;25.42;;
73980;SDS011;62348;51.412;5.436;2023-04-23T00:56:53;32.78;;;23.08;;
73980;SDS011;62348;51.412;5.436;2023-04-23T00:59:22;37.47;;;25.30;;
73980;SDS011;62348;51.412;5.436;2023-04-23T01:01:48;36.40;;;25.00;;
73980;SDS011;62348;51.412;5.436;2023-04-23T01:04:15;38.45;;;24.98;;
73980;SDS011;62348;51.412;5.436;2023-04-23T01:06:41;39.72;;;25.52;;
73980;SDS011;62348;51.412;5.436;2023-04-23T01:09:08;33.65;;;24.60;;
73980;SDS011;62348;51.412;5.436;2023-04-23T01:11:36;32.97;;;24.35;;
73980;SDS011;62348;51.412;5.436;2023-04-23T01:14:04;35.65;;;24.73;;
73980;SDS011;62348;51.412;5.436;2023-04-23T01:16:30;35.65;;;25.15;;
73980;SDS011;62348;51.412;5.436;2023-04-23T01:18:56;37.58;;;25.65;;
73980;SDS011;62348;51.412;5.436;2023-04-23T01:21:22;34.78;;;25.15;;
73980;SDS011;62348;51.412;5.436;2023-04-23T01:23:49;35.53;;;26.10;;
73980;SDS011;62348;51.412;5.436;2023-04-23T01:26:15;34.30;;;23.58;;
73980;SDS011;62348;51.412;5.436;2023-04-23T01:28:42;35.72;;;25.73;;
73980;SDS011;62348;51.412;5.436;2023-04-23T01:31:09;33.03;;;24.80;;
73980;SDS011;62348;51.412;5.436;2023-04-23T01:33:37;34.30;;;24.42;;
73980;SDS011;62348;51.412;5.436;2023-04-23T01:36:07;34.58;;;25.05;;
73980;SDS011;62348;51.412;5.436;2023-04-23T01:38:33;35.83;;;24.75;;
73980;SDS011;62348;51.412;5.436;2023-04-23T01:41:00;35.83;;;24.98;;
73980;SDS011;62348;51.412;5.436;2023-04-23T01:43:26;36.97;;;24.88;;
73980;SDS011;62348;51.412;5.436;2023-04-23T01:45:52;33.35;;;25.20;;
73980;SDS011;62348;51.412;5.436;2023-04-23T01:48:18;33.00;;;24.75;;
73980;SDS011;62348;51.412;5.436;2023-04-23T01:50:43;32.00;;;24.58;;
73980;SDS011;62348;51.412;5.436;2023-04-23T01:53:09;32.15;;;23.48;;
73980;SDS011;62348;51.412;5.436;2023-04-23T01:55:36;34.50;;;23.80;;
73980;SDS011;62348;51.412;5.436;2023-04-23T01:58:03;32.45;;;23.38;;
73980;SDS011;62348;51.412;5.436;2023-04-23T02:00:28;30.35;;;22.70;;
73980;SDS011;62348;51.412;5.436;2023-04-23T02:02:54;31.75;;;22.98;;
73980;SDS011;62348;51.412;5.436;2023-04-23T02:05:20;29.52;;;23.65;;
73980;SDS011;62348;51.412;5.436;2023-04-23T02:07:46;31.75;;;23.13;;
73980;SDS011;62348;51.412;5.436;2023-04-23T02:10:13;30.25;;;23.42;;
73980;SDS011;62348;51.412;5.436;2023-04-23T02:12:40;31.42;;;23.95;;
73980;SDS011;62348;51.412;5.436;2023-04-23T02:15:06;29.90;;;22.25;;
73980;SDS011;62348;51.412;5.436;2023-04-23T02:17:33;31.05;;;22.73;;
73980;SDS011;62348;51.412;5.436;2023-04-23T02:19:59;29.70;;;22.30;;
73980;SDS011;62348;51.412;5.436;2023-04-23T02:22:25;32.95;;;22.75;;
73980;SDS011;62348;51.412;5.436;2023-04-23T02:24:52;30.48;;;22.52;;
73980;SDS011;62348;51.412;5.436;2023-04-23T02:27:18;30.98;;;23.35;;
73980;SDS011;62348;51.412;5.436;2023-04-23T02:29:44;32.90;;;22.90;;
73980;SDS011;62348;51.412;5.436;2023-04-23T02:32:10;29.10;;;22.00;;
73980;SDS011;62348;51.412;5.436;2023-04-23T02:34:35;32.40;;;22.50;;
73980;SDS011;62348;51.412;5.436;2023-04-23T02:37:01;32.70;;;22.95;;
73980;SDS011;62348;51.412;5.436;2023-04-23T02:39:29;30.83;;;22.88;;
73980;SDS011;62348;51.412;5.436;2023-04-23T02:41:55;29.05;;;21.27;;
73980;SDS011;62348;51.412;5.436;2023-04-23T02:44:20;29.00;;;22.25;;
73980;SDS011;62348;51.412;5.436;2023-04-23T02:46:46;30.52;;;22.85;;
73980;SDS011;62348;51.412;5.436;2023-04-23T02:49:11;28.90;;;22.30;;
73980;SDS011;62348;51.412;5.436;2023-04-23T02:51:37;30.45;;;22.17;;
73980;SDS011;62348;51.412;5.436;2023-04-23T02:54:02;30.67;;;22.42;;
73980;SDS011;62348;51.412;5.436;2023-04-23T02:56:28;29.40;;;22.98;;
73980;SDS011;62348;51.412;5.436;2023-04-23T02:58:53;28.23;;;21.52;;
73980;SDS011;62348;51.412;5.436;2023-04-23T03:01:18;31.48;;;21.38;;
73980;SDS011;62348;51.412;5.436;2023-04-23T03:03:44;28.58;;;21.40;;
73980;SDS011;62348;51.412;5.436;2023-04-23T03:06:10;29.10;;;21.38;;
73980;SDS011;62348;51.412;5.436;2023-04-23T03:08:35;31.30;;;22.52;;
73980;SDS011;62348;51.412;5.436;2023-04-23T03:11:00;30.52;;;22.55;;
73980;SDS011;62348;51.412;5.436;2023-04-23T03:13:26;29.45;;;21.25;;
73980;SDS011;62348;51.412;5.436;2023-04-23T03:15:51;26.33;;;21.88;;
73980;SDS011;62348;51.412;5.436;2023-04-23T03:18:18;31.65;;;22.58;;
73980;SDS011;62348;51.412;5.436;2023-04-23T03:20:43;31.45;;;21.77;;
73980;SDS011;62348;51.412;5.436;2023-04-23T03:23:09;26.42;;;19.95;;
73980;SDS011;62348;51.412;5.436;2023-04-23T03:25:34;30.88;;;22.27;;
73980;SDS011;62348;51.412;5.436;2023-04-23T03:28:00;28.33;;;21.05;;
73980;SDS011;62348;51.412;5.436;2023-04-23T03:30:25;31.95;;;21.13;;
73980;SDS011;62348;51.412;5.436;2023-04-23T03:32:52;28.50;;;22.60;;
73980;SDS011;62348;51.412;5.436;2023-04-23T03:35:19;31.67;;;22.90;;
73980;SDS011;62348;51.412;5.436;2023-04-23T03:37:44;30.35;;;22.67;;
73980;SDS011;62348;51.412;5.436;2023-04-23T03:40:10;30.63;;;22.05;;
73980;SDS011;62348;51.412;5.436;2023-04-23T03:42:35;29.02;;;21.45;;
73980;SDS011;62348;51.412;5.436;2023-04-23T03:45:01;27.95;;;20.73;;
73980;SDS011;62348;51.412;5.436;2023-04-23T03:47:27;25.10;;;19.23;;
73980;SDS011;62348;51.412;5.436;2023-04-23T03:49:53;26.15;;;19.80;;
73980;SDS011;62348;51.412;5.436;2023-04-23T03:52:18;27.75;;;20.55;;
73980;SDS011;62348;51.412;5.436;2023-04-23T03:54:44;27.20;;;20.10;;
73980;SDS011;62348;51.412;5.436;2023-04-23T03:57:09;28.80;;;21.98;;
73980;SDS011;62348;51.412;5.436;2023-04-23T03:59:38;26.27;;;21.17;;
73980;SDS011;62348;51.412;5.436;2023-04-23T04:02:03;28.88;;;21.77;;
73980;SDS011;62348;51.412;5.436;2023-04-23T04:04:30;27.92;;;20.25;;
73980;SDS011;62348;51.412;5.436;2023-04-23T04:06:56;26.05;;;19.35;;
73980;SDS011;62348;51.412;5.436;2023-04-23T04:09:24;28.15;;;19.75;;
73980;SDS011;62348;51.412;5.436;2023-04-23T04:11:50;27.02;;;19.00;;
73980;SDS011;62348;51.412;5.436;2023-04-23T04:14:17;25.98;;;18.92;;
73980;SDS011;62348;51.412;5.436;2023-04-23T04:16:43;24.77;;;20.05;;
73980;SDS011;62348;51.412;5.436;2023-04-23T04:19:08;25.25;;;18.55;;
73980;SDS011;62348;51.412;5.436;2023-04-23T04:21:33;23.65;;;18.13;;
73980;SDS011;62348;51.412;5.436;2023-04-23T04:23:59;25.05;;;19.13;;
73980;SDS011;62348;51.412;5.436;2023-04-23T04:26:26;25.40;;;18.73;;
73980;SDS011;62348;51.412;5.436;2023-04-23T04:28:52;24.50;;;18.90;;
73980;SDS011;62348;51.412;5.436;2023-04-23T04:31:17;25.35;;;18.38;;
73980;SDS011;62348;51.412;5.436;2023-04-23T04:33:45;24.67;;;18.60;;
73980;SDS011;62348;51.412;5.436;2023-04-23T04:36:12;23.63;;;17.90;;
73980;SDS011;62348;51.412;5.436;2023-04-23T04:38:38;27.83;;;19.83;;
73980;SDS011;62348;51.412;5.436;2023-04-23T04:41:04;22.60;;;17.27;;
73980;SDS011;62348;51.412;5.436;2023-04-23T04:43:29;23.67;;;18.20;;
73980;SDS011;62348;51.412;5.436;2023-04-23T04:45:56;22.83;;;18.00;;
73980;SDS011;62348;51.412;5.436;2023-04-23T04:48:23;25.25;;;18.50;;
73980;SDS011;62348;51.412;5.436;2023-04-23T04:50:48;26.63;;;19.08;;
73980;SDS011;62348;51.412;5.436;2023-04-23T04:53:14;23.88;;;18.35;;
73980;SDS011;62348;51.412;5.436;2023-04-23T04:55:39;22.75;;;18.20;;
73980;SDS011;62348;51.412;5.436;2023-04-23T04:58:05;21.95;;;17.40;;
73980;SDS011;62348;51.412;5.436;2023-04-23T05:00:31;23.08;;;18.15;;
73980;SDS011;62348;51.412;5.436;2023-04-23T05:02:56;24.55;;;18.48;;
73980;SDS011;62348;51.412;5.436;2023-04-23T05:05:23;22.58;;;17.60;;
73980;SDS011;62348;51.412;5.436;2023-04-23T05:07:49;23.63;;;17.63;;
73980;SDS011;62348;51.412;5.436;2023-04-23T05:10:15;23.08;;;18.05;;
73980;SDS011;62348;51.412;5.436;2023-04-23T05:12:41;24.27;;;17.60;;
73980;SDS011;62348;51.412;5.436;2023-04-23T05:15:07;23.58;;;18.52;;
73980;SDS011;62348;51.412;5.436;2023-04-23T05:17:34;25.02;;;18.23;;
73980;SDS011;62348;51.412;5.436;2023-04-23T05:20:01;24.73;;;18.77;;
73980;SDS011;62348;51.412;5.436;2023-04-23T05:22:26;22.70;;;17.08;;
73980;SDS011;62348;51.412;5.436;2023-04-23T05:24:52;26.90;;;18.77;;
73980;SDS011;62348;51.412;5.436;2023-04-23T05:27:17;25.90;;;18.52;;
73980;SDS011;62348;51.412;5.436;2023-04-23T05:29:43;20.98;;;17.55;;
73980;SDS011;62348;51.412;5.436;2023-04-23T05:32:09;21.90;;;16.90;;
73980;SDS011;62348;51.412;5.436;2023-04-23T05:34:34;22.73;;;18.02;;
73980;SDS011;62348;51.412;5.436;2023-04-23T05:37:00;21.83;;;17.85;;
73980;SDS011;62348;51.412;5.436;2023-04-23T05:39:26;22.52;;;17.45;;
73980;SDS011;62348;51.412;5.436;2023-04-23T05:41:51;24.00;;;17.95;;
73980;SDS011;62348;51.412;5.436;2023-04-23T05:44:17;22.42;;;17.45;;
73980;SDS011;62348;51.412;5.436;2023-04-23T05:46:42;23.25;;;17.17;;
73980;SDS011;62348;51.412;5.436;2023-04-23T05:49:08;22.15;;;16.25;;
73980;SDS011;62348;51.412;5.436;2023-04-23T05:51:33;23.30;;;16.13;;
73980;SDS011;62348;51.412;5.436;2023-04-23T05:53:58;21.35;;;16.33;;
73980;SDS011;62348;51.412;5.436;2023-04-23T05:56:24;20.45;;;15.73;;
73980;SDS011;62348;51.412;5.436;2023-04-23T05:58:49;20.55;;;16.02;;
73980;SDS011;62348;51.412;5.436;2023-04-23T06:01:15;18.98;;;14.82;;
73980;SDS011;62348;51.412;5.436;2023-04-23T06:03:40;21.75;;;16.23;;
73980;SDS011;62348;51.412;5.436;2023-04-23T06:06:09;21.85;;;16.80;;
73980;SDS011;62348;51.412;5.436;2023-04-23T06:08:36;23.30;;;15.77;;
73980;SDS011;62348;51.412;5.436;2023-04-23T06:11:01;18.33;;;14.80;;
73980;SDS011;62348;51.412;5.436;2023-04-23T06:13:27;19.27;;;14.65;;
73980;SDS011;62348;51.412;5.436;2023-04-23T06:15:54;20.45;;;14.40;;
73980;SDS011;62348;51.412;5.436;2023-04-23T06:18:20;20.67;;;14.93;;
73980;SDS011;62348;51.412;5.436;2023-04-23T06:20:45;18.35;;;13.95;;
73980;SDS011;62348;51.412;5.436;2023-04-23T06:23:12;17.73;;;13.73;;
73980;SDS011;62348;51.412;5.436;2023-04-23T06:25:37;17.65;;;13.60;;
73980;SDS011;62348;51.412;5.436;2023-04-23T06:28:03;17.30;;;13.65;;
73980;SDS011;62348;51.412;5.436;2023-04-23T06:30:28;14.35;;;11.95;;
73980;SDS011;62348;51.412;5.436;2023-04-23T06:32:54;16.25;;;12.35;;
73980;SDS011;62348;51.412;5.436;2023-04-23T06:35:19;14.73;;;12.18;;
73980;SDS011;62348;51.412;5.436;2023-04-23T06:37:44;14.10;;;12.25;;
73980;SDS011;62348;51.412;5.436;2023-04-23T06:40:10;13.77;;;11.70;;
73980;SDS011;62348;51.412;5.436;2023-04-23T06:42:35;13.07;;;10.95;;
73980;SDS011;62348;51.412;5.436;2023-04-23T06:45:01;15.57;;;11.25;;
73980;SDS011;62348;51.412;5.436;2023-04-23T06:47:29;14.48;;;10.45;;
73980;SDS011;62348;51.412;5.436;2023-04-23T06:49:55;14.52;;;10.43;;
73980;SDS011;62348;51.412;5.436;2023-04-23T06:52:21;14.90;;;10.13;;
73980;SDS011;62348;51.412;5.436;2023-04-23T06:54:46;12.20;;;10.00;;
73980;SDS011;62348;51.412;5.436;2023-04-23T06:57:12;10.80;;;9.20;;
73980;SDS011;62348;51.412;5.436;2023-04-23T06:59:37;13.93;;;9.70;;
73980;SDS011;62348;51.412;5.436;2023-04-23T07:02:02;14.75;;;9.82;;
73980;SDS011;62348;51.412;5.436;2023-04-23T07:04:28;12.38;;;8.10;;
73980;SDS011;62348;51.412;5.436;2023-04-23T07:06:53;13.65;;;8.85;;
73980;SDS011;62348;51.412;5.436;2023-04-23T07:09:19;10.93;;;8.13;;
73980;SDS011;62348;51.412;5.436;2023-04-23T07:11:44;10.70;;;7.68;;
73980;SDS011;62348;51.412;5.436;2023-04-23T07:14:10;13.35;;;7.60;;
73980;SDS011;62348;51.412;5.436;2023-04-23T07:16:35;13.55;;;7.15;;
73980;SDS011;62348;51.412;5.436;2023-04-23T07:19:01;9.75;;;7.13;;
73980;SDS011;62348;51.412;5.436;2023-04-23T07:21:27;16.23;;;7.00;;
73980;SDS011;62348;51.412;5.436;2023-04-23T07:23:56;9.77;;;6.60;;
73980;SDS011;62348;51.412;5.436;2023-04-23T07:26:23;10.13;;;6.70;;
73980;SDS011;62348;51.412;5.436;2023-04-23T07:28:49;10.57;;;6.30;;
73980;SDS011;62348;51.412;5.436;2023-04-23T07:31:15;7.40;;;5.30;;
73980;SDS011;62348;51.412;5.436;2023-04-23T07:33:41;7.68;;;5.28;;
73980;SDS011;62348;51.412;5.436;2023-04-23T07:36:07;10.43;;;5.43;;
73980;SDS011;62348;51.412;5.436;2023-04-23T07:38:32;9.23;;;4.90;;
73980;SDS011;62348;51.412;5.436;2023-04-23T07:40:57;7.85;;;4.82;;
73980;SDS011;62348;51.412;5.436;2023-04-23T07:43:23;7.03;;;4.55;;
73980;SDS011;62348;51.412;5.436;2023-04-23T07:45:48;7.60;;;4.57;;
73980;SDS011;62348;51.412;5.436;2023-04-23T07:48:14;5.78;;;4.07;;
73980;SDS011;62348;51.412;5.436;2023-04-23T07:50:39;7.70;;;4.55;;
73980;SDS011;62348;51.412;5.436;2023-04-23T07:53:05;9.27;;;4.75;;
73980;SDS011;62348;51.412;5.436;2023-04-23T07:55:30;12.05;;;4.50;;
73980;SDS011;62348;51.412;5.436;2023-04-23T07:57:55;12.13;;;4.10;;
73980;SDS011;62348;51.412;5.436;2023-04-23T08:00:21;9.02;;;4.43;;
73980;SDS011;62348;51.412;5.436;2023-04-23T08:02:46;5.57;;;3.55;;
73980;SDS011;62348;51.412;5.436;2023-04-23T08:05:12;8.27;;;3.55;;
73980;SDS011;62348;51.412;5.436;2023-04-23T08:07:37;6.55;;;3.53;;
73980;SDS011;62348;51.412;5.436;2023-04-23T08:10:03;9.45;;;4.00;;
73980;SDS011;62348;51.412;5.436;2023-04-23T08:12:30;6.72;;;2.90;;
73980;SDS011;62348;51.412;5.436;2023-04-23T08:14:58;8.43;;;2.85;;
73980;SDS011;62348;51.412;5.436;2023-04-23T08:17:24;11.82;;;3.67;;
73980;SDS011;62348;51.412;5.436;2023-04-23T08:19:49;8.20;;;2.90;;
73980;SDS011;62348;51.412;5.436;2023-04-23T08:22:15;10.73;;;3.45;;
73980;SDS011;62348;51.412;5.436;2023-04-23T08:24:41;6.50;;;2.63;;
73980;SDS011;62348;51.412;5.436;2023-04-23T08:27:08;8.40;;;3.42;;
73980;SDS011;62348;51.412;5.436;2023-04-23T08:29:33;6.18;;;3.05;;
73980;SDS011;62348;51.412;5.436;2023-04-23T08:31:59;8.43;;;2.35;;
73980;SDS011;62348;51.412;5.436;2023-04-23T08:34:24;6.45;;;2.70;;
73980;SDS011;62348;51.412;5.436;2023-04-23T08:36:50;7.40;;;2.63;;
73980;SDS011;62348;51.412;5.436;2023-04-23T08:39:15;9.27;;;2.70;;
73980;SDS011;62348;51.412;5.436;2023-04-23T08:41:41;8.57;;;2.88;;
73980;SDS011;62348;51.412;5.436;2023-04-23T08:44:11;8.70;;;2.65;;
73980;SDS011;62348;51.412;5.436;2023-04-23T08:46:48;7.88;;;2.58;;
73980;SDS011;62348;51.412;5.436;2023-04-23T08:49:15;9.00;;;2.60;;
73980;SDS011;62348;51.412;5.436;2023-04-23T08:51:45;6.63;;;2.30;;
73980;SDS011;62348;51.412;5.436;2023-04-23T08:54:14;9.65;;;2.40;;
73980;SDS011;62348;51.412;5.436;2023-04-23T08:56:45;8.15;;;2.63;;
73980;SDS011;62348;51.412;5.436;2023-04-23T08:59:11;9.38;;;2.80;;
73980;SDS011;62348;51.412;5.436;2023-04-23T09:01:37;7.18;;;2.97;;
73980;SDS011;62348;51.412;5.436;2023-04-23T09:04:02;10.60;;;3.28;;
73980;SDS011;62348;51.412;5.436;2023-04-23T09:06:29;10.27;;;2.40;;
73980;SDS011;62348;51.412;5.436;2023-04-23T09:08:56;9.07;;;2.42;;
73980;SDS011;62348;51.412;5.436;2023-04-23T09:11:23;6.72;;;2.15;;
73980;SDS011;62348;51.412;5.436;2023-04-23T09:13:51;7.63;;;2.33;;
73980;SDS011;62348;51.412;5.436;2023-04-23T09:16:17;6.10;;;2.35;;
73980;SDS011;62348;51.412;5.436;2023-04-23T09:18:42;6.45;;;1.90;;
73980;SDS011;62348;51.412;5.436;2023-04-23T09:21:08;10.70;;;2.60;;
73980;SDS011;62348;51.412;5.436;2023-04-23T09:23:37;7.80;;;1.98;;
73980;SDS011;62348;51.412;5.436;2023-04-23T09:26:04;6.93;;;2.17;;
73980;SDS011;62348;51.412;5.436;2023-04-23T09:28:34;6.82;;;1.80;;
73980;SDS011;62348;51.412;5.436;2023-04-23T09:31:00;5.45;;;1.83;;
73980;SDS011;62348;51.412;5.436;2023-04-23T09:33:25;4.68;;;1.40;;
73980;SDS011;62348;51.412;5.436;2023-04-23T09:35:52;7.22;;;2.00;;
73980;SDS011;62348;51.412;5.436;2023-04-23T09:38:18;7.72;;;2.03;;
73980;SDS011;62348;51.412;5.436;2023-04-23T09:40:44;6.90;;;2.35;;
73980;SDS011;62348;51.412;5.436;2023-04-23T09:43:09;6.80;;;1.75;;
73980;SDS011;62348;51.412;5.436;2023-04-23T09:45:35;6.47;;;2.03;;
73980;SDS011;62348;51.412;5.436;2023-04-23T09:48:01;5.55;;;1.98;;
73980;SDS011;62348;51.412;5.436;2023-04-23T09:53:03;6.85;;;2.17;;
73980;SDS011;62348;51.412;5.436;2023-04-23T09:55:31;7.38;;;2.08;;
73980;SDS011;62348;51.412;5.436;2023-04-23T09:58:02;4.47;;;1.38;;
73980;SDS011;62348;51.412;5.436;2023-04-23T10:00:39;7.18;;;1.80;;
73980;SDS011;62348;51.412;5.436;2023-04-23T10:03:05;7.15;;;1.73;;
73980;SDS011;62348;51.412;5.436;2023-04-23T10:05:36;6.68;;;1.70;;
73980;SDS011;62348;51.412;5.436;2023-04-23T10:08:05;5.82;;;2.97;;
73980;SDS011;62348;51.412;5.436;2023-04-23T10:10:31;4.43;;;1.90;;
73980;SDS011;62348;51.412;5.436;2023-04-23T10:12:58;5.63;;;1.90;;
73980;SDS011;62348;51.412;5.436;2023-04-23T10:15:25;10.20;;;2.40;;
73980;SDS011;62348;51.412;5.436;2023-04-23T10:17:51;4.80;;;1.73;;
73980;SDS011;62348;51.412;5.436;2023-04-23T10:20:17;6.60;;;1.90;;
73980;SDS011;62348;51.412;5.436;2023-04-23T10:22:45;5.75;;;2.40;;
73980;SDS011;62348;51.412;5.436;2023-04-23T10:25:11;6.40;;;2.00;;
73980;SDS011;62348;51.412;5.436;2023-04-23T10:27:39;4.50;;;2.20;;
73980;SDS011;62348;51.412;5.436;2023-04-23T10:30:08;6.20;;;2.47;;
73980;SDS011;62348;51.412;5.436;2023-04-23T10:32:35;9.68;;;1.98;;
73980;SDS011;62348;51.412;5.436;2023-04-23T10:35:02;9.45;;;2.17;;
73980;SDS011;62348;51.412;5.436;2023-04-23T10:37:29;11.57;;;1.98;;
73980;SDS011;62348;51.412;5.436;2023-04-23T10:39:55;7.22;;;2.20;;
73980;SDS011;62348;51.412;5.436;2023-04-23T10:44:54;6.55;;;2.38;;
73980;SDS011;62348;51.412;5.436;2023-04-23T10:47:21;8.43;;;2.65;;
73980;SDS011;62348;51.412;5.436;2023-04-23T10:49:47;7.22;;;1.92;;
73980;SDS011;62348;51.412;5.436;2023-04-23T10:52:13;4.85;;;1.77;;
73980;SDS011;62348;51.412;5.436;2023-04-23T10:54:43;7.10;;;2.03;;
73980;SDS011;62348;51.412;5.436;2023-04-23T10:57:20;6.45;;;1.85;;
73980;SDS011;62348;51.412;5.436;2023-04-23T10:59:52;5.80;;;2.00;;
73980;SDS011;62348;51.412;5.436;2023-04-23T11:02:19;9.98;;;2.17;;
73980;SDS011;62348;51.412;5.436;2023-04-23T11:04:54;3.88;;;1.80;;
73980;SDS011;62348;51.412;5.436;2023-04-23T11:07:30;3.88;;;1.30;;
73980;SDS011;62348;51.412;5.436;2023-04-23T11:09:59;5.65;;;1.90;;
73980;SDS011;62348;51.412;5.436;2023-04-23T11:12:38;3.72;;;1.73;;
73980;SDS011;62348;51.412;5.436;2023-04-23T11:15:14;4.25;;;1.45;;
73980;SDS011;62348;51.412;5.436;2023-04-23T11:20:08;5.13;;;2.28;;
73980;SDS011;62348;51.412;5.436;2023-04-23T11:22:39;4.18;;;1.60;;
73980;SDS011;62348;51.412;5.436;2023-04-23T11:25:14;4.13;;;1.15;;
73980;SDS011;62348;51.412;5.436;2023-04-23T11:27:44;3.22;;;1.70;;
73980;SDS011;62348;51.412;5.436;2023-04-23T11:32:38;4.13;;;1.50;;
73980;SDS011;62348;51.412;5.436;2023-04-23T11:35:05;4.63;;;1.20;;
73980;SDS011;62348;51.412;5.436;2023-04-23T11:37:31;5.68;;;1.52;;
73980;SDS011;62348;51.412;5.436;2023-04-23T11:39:57;4.65;;;1.48;;
73980;SDS011;62348;51.412;5.436;2023-04-23T11:42:32;6.22;;;1.77;;
73980;SDS011;62348;51.412;5.436;2023-04-23T11:45:17;5.30;;;1.70;;
73980;SDS011;62348;51.412;5.436;2023-04-23T11:47:50;6.95;;;1.58;;
73980;SDS011;62348;51.412;5.436;2023-04-23T11:50:21;3.65;;;1.33;;
73980;SDS011;62348;51.412;5.436;2023-04-23T11:52:57;5.25;;;1.20;;
73980;SDS011;62348;51.412;5.436;2023-04-23T11:55:28;5.07;;;1.13;;
73980;SDS011;62348;51.412;5.436;2023-04-23T11:57:55;3.80;;;1.45;;
73980;SDS011;62348;51.412;5.436;2023-04-23T12:00:22;5.03;;;1.58;;
73980;SDS011;62348;51.412;5.436;2023-04-23T12:02:49;5.75;;;1.67;;
73980;SDS011;62348;51.412;5.436;2023-04-23T12:05:22;4.20;;;1.48;;
73980;SDS011;62348;51.412;5.436;2023-04-23T12:08:13;4.95;;;1.75;;
73980;SDS011;62348;51.412;5.436;2023-04-23T12:11:01;5.05;;;1.38;;
73980;SDS011;62348;51.412;5.436;2023-04-23T12:13:28;4.72;;;1.50;;
73980;SDS011;62348;51.412;5.436;2023-04-23T12:15:58;3.83;;;1.60;;
73980;SDS011;62348;51.412;5.436;2023-04-23T12:18:37;5.25;;;1.83;;
73980;SDS011;62348;51.412;5.436;2023-04-23T12:21:12;9.50;;;2.00;;
73980;SDS011;62348;51.412;5.436;2023-04-23T12:26:12;4.53;;;1.52;;
73980;SDS011;62348;51.412;5.436;2023-04-23T12:28:51;4.43;;;1.15;;
73980;SDS011;62348;51.412;5.436;2023-04-23T12:34:02;4.88;;;1.77;;
73980;SDS011;62348;51.412;5.436;2023-04-23T12:36:29;4.32;;;1.50;;
73980;SDS011;62348;51.412;5.436;2023-04-23T12:41:48;5.10;;;1.20;;
73980;SDS011;62348;51.412;5.436;2023-04-23T12:44:15;3.67;;;0.95;;
73980;SDS011;62348;51.412;5.436;2023-04-23T12:46:40;4.63;;;1.38;;
73980;SDS011;62348;51.412;5.436;2023-04-23T12:49:06;4.50;;;1.48;;
73980;SDS011;62348;51.412;5.436;2023-04-23T12:51:31;3.15;;;1.20;;
73980;SDS011;62348;51.412;5.436;2023-04-23T12:53:56;3.15;;;1.58;;
73980;SDS011;62348;51.412;5.436;2023-04-23T12:56:22;5.25;;;1.40;;
73980;SDS011;62348;51.412;5.436;2023-04-23T12:58:47;7.65;;;2.17;;
73980;SDS011;62348;51.412;5.436;2023-04-23T13:01:13;4.30;;;1.35;;
73980;SDS011;62348;51.412;5.436;2023-04-23T13:03:39;3.13;;;1.30;;
73980;SDS011;62348;51.412;5.436;2023-04-23T13:06:04;5.13;;;1.30;;
73980;SDS011;62348;51.412;5.436;2023-04-23T13:08:32;3.88;;;1.48;;
73980;SDS011;62348;51.412;5.436;2023-04-23T13:10:57;3.58;;;1.13;;
73980;SDS011;62348;51.412;5.436;2023-04-23T13:13:23;3.17;;;1.17;;
73980;SDS011;62348;51.412;5.436;2023-04-23T13:15:48;4.68;;;1.80;;
73980;SDS011;62348;51.412;5.436;2023-04-23T13:18:13;5.45;;;1.48;;
73980;SDS011;62348;51.412;5.436;2023-04-23T13:20:39;5.60;;;1.67;;
73980;SDS011;62348;51.412;5.436;2023-04-23T13:23:04;4.70;;;1.42;;
73980;SDS011;62348;51.412;5.436;2023-04-23T13:25:32;4.18;;;1.10;;
73980;SDS011;62348;51.412;5.436;2023-04-23T13:27:58;5.50;;;1.60;;
73980;SDS011;62348;51.412;5.436;2023-04-23T13:30:24;6.10;;;1.58;;
73980;SDS011;62348;51.412;5.436;2023-04-23T13:32:49;4.30;;;1.10;;
73980;SDS011;62348;51.412;5.436;2023-04-23T13:35:14;8.98;;;1.90;;
73980;SDS011;62348;51.412;5.436;2023-04-23T13:37:41;6.38;;;1.48;;
73980;SDS011;62348;51.412;5.436;2023-04-23T13:40:07;4.47;;;1.33;;
73980;SDS011;62348;51.412;5.436;2023-04-23T13:42:33;4.60;;;1.50;;
73980;SDS011;62348;51.412;5.436;2023-04-23T13:44:59;4.38;;;1.40;;
73980;SDS011;62348;51.412;5.436;2023-04-23T13:47:25;5.20;;;1.58;;
73980;SDS011;62348;51.412;5.436;2023-04-23T13:49:55;4.18;;;1.55;;
73980;SDS011;62348;51.412;5.436;2023-04-23T13:52:20;3.00;;;1.25;;
73980;SDS011;62348;51.412;5.436;2023-04-23T13:54:46;4.43;;;1.10;;
73980;SDS011;62348;51.412;5.436;2023-04-23T13:57:13;2.90;;;1.05;;
73980;SDS011;62348;51.412;5.436;2023-04-23T13:59:38;3.97;;;1.33;;
73980;SDS011;62348;51.412;5.436;2023-04-23T14:02:04;3.78;;;1.23;;
73980;SDS011;62348;51.412;5.436;2023-04-23T14:04:29;5.53;;;1.33;;
73980;SDS011;62348;51.412;5.436;2023-04-23T14:06:55;5.38;;;2.13;;
73980;SDS011;62348;51.412;5.436;2023-04-23T14:09:20;3.63;;;1.08;;
73980;SDS011;62348;51.412;5.436;2023-04-23T14:11:46;4.72;;;1.38;;
73980;SDS011;62348;51.412;5.436;2023-04-23T14:14:11;6.63;;;1.55;;
73980;SDS011;62348;51.412;5.436;2023-04-23T14:16:37;4.10;;;2.03;;
73980;SDS011;62348;51.412;5.436;2023-04-23T14:19:02;7.00;;;1.80;;
73980;SDS011;62348;51.412;5.436;2023-04-23T14:21:28;6.68;;;1.92;;
73980;SDS011;62348;51.412;5.436;2023-04-23T14:24:00;7.25;;;1.90;;
73980;SDS011;62348;51.412;5.436;2023-04-23T14:26:35;4.43;;;1.83;;
73980;SDS011;62348;51.412;5.436;2023-04-23T14:29:03;4.13;;;1.60;;
73980;SDS011;62348;51.412;5.436;2023-04-23T14:31:43;3.03;;;1.52;;
73980;SDS011;62348;51.412;5.436;2023-04-23T14:34:08;5.28;;;1.58;;
73980;SDS011;62348;51.412;5.436;2023-04-23T14:36:35;5.13;;;1.77;;
73980;SDS011;62348;51.412;5.436;2023-04-23T14:39:01;4.13;;;1.70;;
73980;SDS011;62348;51.412;5.436;2023-04-23T14:41:30;2.65;;;1.75;;
73980;SDS011;62348;51.412;5.436;2023-04-23T14:44:01;6.65;;;2.08;;
73980;SDS011;62348;51.412;5.436;2023-04-23T14:46:27;5.18;;;1.88;;
73980;SDS011;62348;51.412;5.436;2023-04-23T14:48:53;2.13;;;1.52;;